sensor_id;sensor_type;location;lat;lon;timestamp;pressure;altitude;pressure_sealevel;temperature;humidity
13867;BME280;7003;46.982;15.248;2023-04-01T00:00:20;95938.06;;;6.98;100.00
13867;BME280;7003;46.982;15.248;2023-04-01T00:02:48;95929.94;;;7.03;100.00
13867;BME280;7003;46.982;15.248;2023-04-01T00:05:17;95937.19;;;7.06;100.00
13867;BME280;7003;46.982;15.248;2023-04-01T00:07:45;95922.44;;;6.93;100.00
13867;BME280;7003;46.982;15.248;2023-04-01T00:10:13;95923.66;;;6.95;100.00
13867;BME280;7003;46.982;15.248;2023-04-01T00:12:43;95922.44;;;6.93;100.00
13867;BME280;7003;46.982;15.248;2023-04-01T00:15:13;95929.47;;;7.01;100.00
13867;BME280;7003;46.982;15.248;2023-04-01T00:17:43;95930.81;;;6.95;100.00
13867;BME280;7003;46.982;15.248;2023-04-01T00:20:11;95931.00;;;6.90;100.00
13867;BME280;7003;46.982;15.248;2023-04-01T00:22:43;95931.00;;;6.90;100.00
13867;BME280;7003;46.982;15.248;2023-04-01T00:25:13;95928.59;;;6.97;100.00
13867;BME280;7003;46.982;15.248;2023-04-01T00:27:42;95920.66;;;6.85;100.00
13867;BME280;7003;46.982;15.248;2023-04-01T00:30:10;95916.03;;;6.82;100.00
13867;BME280;7003;46.982;15.248;2023-04-01T00:32:41;95914.94;;;6.71;100.00
13867;BME280;7003;46.982;15.248;2023-04-01T00:35:09;95917.16;;;6.93;100.00
13867;BME280;7003;46.982;15.248;2023-04-01T00:37:41;95913.28;;;6.90;100.00
13867;BME280;7003;46.982;15.248;2023-04-01T00:40:23;95902.28;;;6.76;100.00
13867;BME280;7003;46.982;15.248;2023-04-01T00:42:56;95903.03;;;6.65;100.00
13867;BME280;7003;46.982;15.248;2023-04-01T00:45:30;95901.06;;;6.62;100.00
13867;BME280;7003;46.982;15.248;2023-04-01T00:48:00;95896.41;;;6.58;100.00
13867;BME280;7003;46.982;15.248;2023-04-01T00:50:33;95899.19;;;6.50;100.00
13867;BME280;7003;46.982;15.248;2023-04-01T00:53:02;95898.28;;;6.46;100.00
13867;BME280;7003;46.982;15.248;2023-04-01T00:55:33;95904.66;;;6.33;100.00
13867;BME280;7003;46.982;15.248;2023-04-01T00:58:05;95906.19;;;6.34;100.00
13867;BME280;7003;46.982;15.248;2023-04-01T01:00:38;95900.91;;;6.34;100.00
13867;BME280;7003;46.982;15.248;2023-04-01T01:03:05;95891.44;;;6.33;100.00
13867;BME280;7003;46.982;15.248;2023-04-01T01:05:46;95888.44;;;6.22;100.00
13867;BME280;7003;46.982;15.248;2023-04-01T01:08:27;95892.44;;;6.40;100.00
13867;BME280;7003;46.982;15.248;2023-04-01T01:11:03;95891.84;;;6.23;100.00
13867;BME280;7003;46.982;15.248;2023-04-01T01:13:36;95884.28;;;6.33;100.00
13867;BME280;7003;46.982;15.248;2023-04-01T01:16:13;95886.63;;;6.35;100.00
13867;BME280;7003;46.982;15.248;2023-04-01T01:18:49;95885.63;;;6.39;100.00
13867;BME280;7003;46.982;15.248;2023-04-01T01:21:43;95890.53;;;6.29;100.00
13867;BME280;7003;46.982;15.248;2023-04-01T01:24:25;95882.28;;;6.18;100.00
13867;BME280;7003;46.982;15.248;2023-04-01T01:27:03;95878.81;;;6.05;100.00
13867;BME280;7003;46.982;15.248;2023-04-01T01:29:48;95872.34;;;6.03;100.00
13867;BME280;7003;46.982;15.248;2023-04-01T01:35:24;95876.56;;;6.28;100.00
13867;BME280;7003;46.982;15.248;2023-04-01T01:38:04;95874.56;;;6.13;100.00
13867;BME280;7003;46.982;15.248;2023-04-01T01:40:34;95867.94;;;6.07;100.00
13867;BME280;7003;46.982;15.248;2023-04-01T01:43:09;95866.53;;;6.22;100.00
13867;BME280;7003;46.982;15.248;2023-04-01T01:45:41;95869.50;;;6.08;100.00
13867;BME280;7003;46.982;15.248;2023-04-01T01:48:11;95865.06;;;6.00;100.00
13867;BME280;7003;46.982;15.248;2023-04-01T01:50:41;95855.16;;;5.97;100.00
13867;BME280;7003;46.982;15.248;2023-04-01T01:53:10;95856.66;;;5.86;100.00
13867;BME280;7003;46.982;15.248;2023-04-01T01:55:39;95844.34;;;5.90;100.00
13867;BME280;7003;46.982;15.248;2023-04-01T01:58:12;95849.59;;;5.77;100.00
13867;BME280;7003;46.982;15.248;2023-04-01T02:00:43;95851.97;;;5.91;100.00
13867;BME280;7003;46.982;15.248;2023-04-01T02:03:15;95847.34;;;5.88;100.00
13867;BME280;7003;46.982;15.248;2023-04-01T02:05:45;95852.56;;;6.09;100.00
13867;BME280;7003;46.982;15.248;2023-04-01T02:08:15;95847.78;;;5.90;100.00
13867;BME280;7003;46.982;15.248;2023-04-01T02:10:47;95850.91;;;5.84;100.00
13867;BME280;7003;46.982;15.248;2023-04-01T02:13:24;95855.75;;;5.81;100.00
13867;BME280;7003;46.982;15.248;2023-04-01T02:15:59;95844.94;;;5.74;100.00
13867;BME280;7003;46.982;15.248;2023-04-01T02:18:29;95849.03;;;5.84;100.00
13867;BME280;7003;46.982;15.248;2023-04-01T02:21:03;95854.16;;;5.68;100.00
13867;BME280;7003;46.982;15.248;2023-04-01T02:23:33;95855.22;;;5.55;100.00
13867;BME280;7003;46.982;15.248;2023-04-01T02:26:05;95851.66;;;5.51;100.00
13867;BME280;7003;46.982;15.248;2023-04-01T02:28:36;95841.78;;;5.48;100.00
13867;BME280;7003;46.982;15.248;2023-04-01T02:31:06;95830.91;;;5.50;100.00
13867;BME280;7003;46.982;15.248;2023-04-01T02:33:34;95833.56;;;5.50;100.00
13867;BME280;7003;46.982;15.248;2023-04-01T02:36:10;95847.47;;;5.50;100.00
13867;BME280;7003;46.982;15.248;2023-04-01T02:38:38;95851.25;;;5.49;100.00
13867;BME280;7003;46.982;15.248;2023-04-01T02:41:07;95860.88;;;5.45;100.00
13867;BME280;7003;46.982;15.248;2023-04-01T02:43:35;95858.69;;;5.47;100.00
13867;BME280;7003;46.982;15.248;2023-04-01T02:46:02;95856.06;;;5.47;100.00
13867;BME280;7003;46.982;15.248;2023-04-01T02:48:32;95850.78;;;5.47;100.00
13867;BME280;7003;46.982;15.248;2023-04-01T02:51:01;95851.63;;;5.39;100.00
13867;BME280;7003;46.982;15.248;2023-04-01T02:53:31;95846.59;;;5.46;100.00
13867;BME280;7003;46.982;15.248;2023-04-01T02:55:58;95842.88;;;5.47;100.00
13867;BME280;7003;46.982;15.248;2023-04-01T02:58:25;95840.75;;;5.40;100.00
13867;BME280;7003;46.982;15.248;2023-04-01T03:00:52;95858.75;;;5.38;100.00
13867;BME280;7003;46.982;15.248;2023-04-01T03:03:21;95854.06;;;5.44;100.00
13867;BME280;7003;46.982;15.248;2023-04-01T03:05:48;95858.75;;;5.38;100.00
13867;BME280;7003;46.982;15.248;2023-04-01T03:08:15;95856.97;;;5.30;100.00
13867;BME280;7003;46.982;15.248;2023-04-01T03:10:44;95858.56;;;5.43;100.00
13867;BME280;7003;46.982;15.248;2023-04-01T03:13:15;95855.81;;;5.40;100.00
13867;BME280;7003;46.982;15.248;2023-04-01T03:15:46;95865.56;;;5.39;100.00
13867;BME280;7003;46.982;15.248;2023-04-01T03:18:13;95861.13;;;5.31;100.00
13867;BME280;7003;46.982;15.248;2023-04-01T03:20:42;95866.63;;;5.26;100.00
13867;BME280;7003;46.982;15.248;2023-04-01T03:23:13;95870.00;;;5.27;100.00
13867;BME280;7003;46.982;15.248;2023-04-01T03:25:40;95871.53;;;5.28;100.00
13867;BME280;7003;46.982;15.248;2023-04-01T03:28:10;95864.09;;;5.30;100.00
13867;BME280;7003;46.982;15.248;2023-04-01T03:30:41;95864.41;;;5.28;100.00
13867;BME280;7003;46.982;15.248;2023-04-01T03:33:12;95875.09;;;5.53;100.00
13867;BME280;7003;46.982;15.248;2023-04-01T03:35:39;95874.50;;;5.47;100.00
13867;BME280;7003;46.982;15.248;2023-04-01T03:38:06;95876.75;;;5.36;100.00
13867;BME280;7003;46.982;15.248;2023-04-01T03:40:36;95886.09;;;5.34;100.00
13867;BME280;7003;46.982;15.248;2023-04-01T03:43:06;95881.81;;;5.21;100.00
13867;BME280;7003;46.982;15.248;2023-04-01T03:45:35;95886.78;;;5.43;100.00
13867;BME280;7003;46.982;15.248;2023-04-01T03:48:04;95890.19;;;5.43;100.00
13867;BME280;7003;46.982;15.248;2023-04-01T03:50:34;95884.81;;;5.40;100.00
13867;BME280;7003;46.982;15.248;2023-04-01T03:53:02;95890.72;;;5.37;100.00
13867;BME280;7003;46.982;15.248;2023-04-01T03:55:29;95887.44;;;5.40;100.00
13867;BME280;7003;46.982;15.248;2023-04-01T03:57:59;95883.00;;;5.32;100.00
13867;BME280;7003;46.982;15.248;2023-04-01T04:00:28;95885.97;;;5.30;100.00
13867;BME280;7003;46.982;15.248;2023-04-01T04:02:57;95889.69;;;5.29;100.00
13867;BME280;7003;46.982;15.248;2023-04-01T04:05:25;95890.66;;;5.25;100.00
13867;BME280;7003;46.982;15.248;2023-04-01T04:07:54;95894.75;;;5.14;100.00
13867;BME280;7003;46.982;15.248;2023-04-01T04:10:22;95900.59;;;5.19;100.00
13867;BME280;7003;46.982;15.248;2023-04-01T04:12:51;95907.94;;;5.14;100.00
13867;BME280;7003;46.982;15.248;2023-04-01T04:15:22;95907.47;;;5.12;100.00
13867;BME280;7003;46.982;15.248;2023-04-01T04:17:49;95912.19;;;4.97;100.00
13867;BME280;7003;46.982;15.248;2023-04-01T04:20:18;95915.03;;;4.92;100.00
13867;BME280;7003;46.982;15.248;2023-04-01T04:22:46;95915.09;;;4.75;100.00
13867;BME280;7003;46.982;15.248;2023-04-01T04:25:15;95905.84;;;4.69;100.00
13867;BME280;7003;46.982;15.248;2023-04-01T04:27:45;95911.56;;;4.71;100.00
13867;BME280;7003;46.982;15.248;2023-04-01T04:30:16;95912.91;;;4.86;100.00
13867;BME280;7003;46.982;15.248;2023-04-01T04:32:44;95912.25;;;4.89;100.00
13867;BME280;7003;46.982;15.248;2023-04-01T04:35:12;95902.47;;;4.89;100.00
13867;BME280;7003;46.982;15.248;2023-04-01T04:37:43;95894.50;;;4.77;100.00
13867;BME280;7003;46.982;15.248;2023-04-01T04:40:12;95897.72;;;4.83;100.00
13867;BME280;7003;46.982;15.248;2023-04-01T04:42:43;95901.59;;;4.85;100.00
13867;BME280;7003;46.982;15.248;2023-04-01T04:45:13;95897.88;;;4.86;100.00
13867;BME280;7003;46.982;15.248;2023-04-01T04:47:42;95902.97;;;4.83;100.00
13867;BME280;7003;46.982;15.248;2023-04-01T04:50:16;95902.25;;;4.74;100.00
13867;BME280;7003;46.982;15.248;2023-04-01T04:52:50;95904.25;;;4.77;100.00
13867;BME280;7003;46.982;15.248;2023-04-01T04:55:20;95898.84;;;4.73;100.00
13867;BME280;7003;46.982;15.248;2023-04-01T04:57:52;95895.72;;;4.80;100.00
13867;BME280;7003;46.982;15.248;2023-04-01T05:00:25;95911.84;;;4.78;100.00
13867;BME280;7003;46.982;15.248;2023-04-01T05:03:01;95909.44;;;4.64;100.00
13867;BME280;7003;46.982;15.248;2023-04-01T05:05:31;95900.03;;;4.84;100.00
13867;BME280;7003;46.982;15.248;2023-04-01T05:08:05;95894.97;;;4.79;100.00
13867;BME280;7003;46.982;15.248;2023-04-01T05:10:35;95909.19;;;4.87;100.00
13867;BME280;7003;46.982;15.248;2023-04-01T05:13:05;95897.72;;;4.83;100.00
13867;BME280;7003;46.982;15.248;2023-04-01T05:15:36;95896.91;;;4.91;100.00
13867;BME280;7003;46.982;15.248;2023-04-01T05:18:06;95893.50;;;4.90;100.00
13867;BME280;7003;46.982;15.248;2023-04-01T05:20:36;95902.03;;;4.87;100.00
13867;BME280;7003;46.982;15.248;2023-04-01T05:23:07;95901.41;;;4.90;100.00
13867;BME280;7003;46.982;15.248;2023-04-01T05:25:38;95904.19;;;4.94;100.00
13867;BME280;7003;46.982;15.248;2023-04-01T05:28:07;95897.41;;;4.84;100.00
13867;BME280;7003;46.982;15.248;2023-04-01T05:30:37;95898.50;;;4.83;100.00
13867;BME280;7003;46.982;15.248;2023-04-01T05:33:10;95904.19;;;4.94;100.00
13867;BME280;7003;46.982;15.248;2023-04-01T05:35:40;95901.59;;;4.85;100.00
13867;BME280;7003;46.982;15.248;2023-04-01T05:38:13;95905.00;;;4.86;100.00
13867;BME280;7003;46.982;15.248;2023-04-01T05:40:42;95900.88;;;4.97;100.00
13867;BME280;7003;46.982;15.248;2023-04-01T05:43:12;95908.41;;;4.86;100.00
13867;BME280;7003;46.982;15.248;2023-04-01T05:45:42;95905.22;;;5.01;100.00
13867;BME280;7003;46.982;15.248;2023-04-01T05:48:11;95904.75;;;4.99;100.00
13867;BME280;7003;46.982;15.248;2023-04-01T05:50:41;95912.94;;;5.07;100.00
13867;BME280;7003;46.982;15.248;2023-04-01T05:53:15;95904.72;;;5.29;100.00
13867;BME280;7003;46.982;15.248;2023-04-01T05:55:46;95905.13;;;5.39;100.00
13867;BME280;7003;46.982;15.248;2023-04-01T05:58:15;95903.28;;;5.40;100.00
13867;BME280;7003;46.982;15.248;2023-04-01T06:00:47;95906.78;;;5.44;100.00
13867;BME280;7003;46.982;15.248;2023-04-01T06:03:18;95899.47;;;5.50;100.00
13867;BME280;7003;46.982;15.248;2023-04-01T06:05:49;95903.81;;;5.66;100.00
13867;BME280;7003;46.982;15.248;2023-04-01T06:08:23;95905.97;;;5.94;100.00
13867;BME280;7003;46.982;15.248;2023-04-01T06:11:01;95902.66;;;5.97;100.00
13867;BME280;7003;46.982;15.248;2023-04-01T06:13:56;95900.94;;;6.01;100.00
13867;BME280;7003;46.982;15.248;2023-04-01T06:16:39;95914.84;;;6.22;100.00
13867;BME280;7003;46.982;15.248;2023-04-01T06:19:27;95919.19;;;6.39;100.00
13867;BME280;7003;46.982;15.248;2023-04-01T06:22:31;95909.19;;;6.69;100.00
13867;BME280;7003;46.982;15.248;2023-04-01T06:25:37;95911.50;;;7.07;100.00
13867;BME280;7003;46.982;15.248;2023-04-01T06:31:20;95910.34;;;7.44;100.00
13867;BME280;7003;46.982;15.248;2023-04-01T06:34:08;95912.25;;;7.31;100.00
13867;BME280;7003;46.982;15.248;2023-04-01T06:40:09;95913.69;;;7.41;100.00
13867;BME280;7003;46.982;15.248;2023-04-01T06:43:01;95914.53;;;7.57;100.00
13867;BME280;7003;46.982;15.248;2023-04-01T06:45:41;95921.84;;;7.88;100.00
13867;BME280;7003;46.982;15.248;2023-04-01T06:48:35;95921.59;;;7.93;100.00
13867;BME280;7003;46.982;15.248;2023-04-01T06:51:18;95930.19;;;8.46;100.00
13867;BME280;7003;46.982;15.248;2023-04-01T06:53:53;95925.69;;;8.62;100.00
13867;BME280;7003;46.982;15.248;2023-04-01T06:56:25;95931.84;;;8.98;100.00
13867;BME280;7003;46.982;15.248;2023-04-01T06:58:58;95933.59;;;9.25;100.00
13867;BME280;7003;46.982;15.248;2023-04-01T07:01:32;95931.41;;;9.46;100.00
13867;BME280;7003;46.982;15.248;2023-04-01T07:04:06;95931.25;;;9.39;100.00
13867;BME280;7003;46.982;15.248;2023-04-01T07:06:45;95935.16;;;9.99;100.00
13867;BME280;7003;46.982;15.248;2023-04-01T07:09:19;95942.50;;;10.45;100.00
13867;BME280;7003;46.982;15.248;2023-04-01T07:11:47;95945.72;;;10.99;100.00
13867;BME280;7003;46.982;15.248;2023-04-01T07:14:22;95947.63;;;11.25;100.00
13867;BME280;7003;46.982;15.248;2023-04-01T07:16:58;95935.72;;;11.68;100.00
13867;BME280;7003;46.982;15.248;2023-04-01T07:19:34;95935.03;;;12.05;100.00
13867;BME280;7003;46.982;15.248;2023-04-01T07:22:10;95935.72;;;11.68;100.00
13867;BME280;7003;46.982;15.248;2023-04-01T07:24:44;95921.59;;;12.27;100.00
13867;BME280;7003;46.982;15.248;2023-04-01T07:27:14;95934.97;;;12.71;100.00
13867;BME280;7003;46.982;15.248;2023-04-01T07:29:43;95937.28;;;13.14;100.00
13867;BME280;7003;46.982;15.248;2023-04-01T07:32:20;95938.63;;;13.44;100.00
13867;BME280;7003;46.982;15.248;2023-04-01T07:34:59;95930.34;;;13.64;100.00
13867;BME280;7003;46.982;15.248;2023-04-01T07:37:37;95937.69;;;13.81;100.00
13867;BME280;7003;46.982;15.248;2023-04-01T07:40:19;95942.34;;;14.02;100.00
13867;BME280;7003;46.982;15.248;2023-04-01T07:43:01;95948.63;;;13.58;100.00
13867;BME280;7003;46.982;15.248;2023-04-01T07:45:38;95947.25;;;12.80;100.00
13867;BME280;7003;46.982;15.248;2023-04-01T07:48:19;95947.00;;;12.55;100.00
13867;BME280;7003;46.982;15.248;2023-04-01T07:50:59;95946.97;;;12.51;100.00
13867;BME280;7003;46.982;15.248;2023-04-01T07:53:36;95949.13;;;13.16;100.00
13867;BME280;7003;46.982;15.248;2023-04-01T07:56:06;95946.69;;;12.63;100.00
13867;BME280;7003;46.982;15.248;2023-04-01T07:58:43;95955.69;;;12.48;100.00
13867;BME280;7003;46.982;15.248;2023-04-01T08:01:19;95950.56;;;12.32;100.00
13867;BME280;7003;46.982;15.248;2023-04-01T08:04:07;95945.38;;;12.47;100.00
13867;BME280;7003;46.982;15.248;2023-04-01T08:06:46;95951.56;;;12.54;100.00
13867;BME280;7003;46.982;15.248;2023-04-01T08:09:27;95954.00;;;12.33;100.00
13867;BME280;7003;46.982;15.248;2023-04-01T08:12:11;95946.84;;;12.41;100.00
13867;BME280;7003;46.982;15.248;2023-04-01T08:14:52;95948.22;;;12.61;100.00
13867;BME280;7003;46.982;15.248;2023-04-01T08:17:31;95952.50;;;12.72;100.00
13867;BME280;7003;46.982;15.248;2023-04-01T08:20:17;95947.28;;;12.83;100.00
13867;BME280;7003;46.982;15.248;2023-04-01T08:22:56;95948.94;;;12.98;100.00
13867;BME280;7003;46.982;15.248;2023-04-01T08:25:27;95961.13;;;12.96;100.00
13867;BME280;7003;46.982;15.248;2023-04-01T08:28:02;95961.28;;;13.14;100.00
13867;BME280;7003;46.982;15.248;2023-04-01T08:30:40;95956.66;;;13.10;100.00
13867;BME280;7003;46.982;15.248;2023-04-01T08:33:16;95954.59;;;13.37;100.00
13867;BME280;7003;46.982;15.248;2023-04-01T08:35:50;95948.78;;;12.81;100.00
13867;BME280;7003;46.982;15.248;2023-04-01T08:38:24;95952.69;;;12.94;100.00
13867;BME280;7003;46.982;15.248;2023-04-01T08:41:11;95950.66;;;13.21;100.00
13867;BME280;7003;46.982;15.248;2023-04-01T08:50:26;95959.03;;;13.74;99.79
13867;BME280;7003;46.982;15.248;2023-04-01T08:53:05;95955.44;;;13.48;85.28
13867;BME280;7003;46.982;15.248;2023-04-01T08:55:43;95960.13;;;13.66;96.13
13867;BME280;7003;46.982;15.248;2023-04-01T08:58:37;95956.81;;;13.90;97.08
13867;BME280;7003;46.982;15.248;2023-04-01T09:01:20;95959.16;;;14.02;93.91
13867;BME280;7003;46.982;15.248;2023-04-01T09:04:14;95960.38;;;14.15;91.07
13867;BME280;7003;46.982;15.248;2023-04-01T09:06:57;95966.16;;;14.24;88.44
13867;BME280;7003;46.982;15.248;2023-04-01T09:09:55;95965.00;;;14.22;83.82
13867;BME280;7003;46.982;15.248;2023-04-01T09:12:49;95969.34;;;14.58;90.22
13867;BME280;7003;46.982;15.248;2023-04-01T09:18:54;95973.59;;;14.77;83.68
13867;BME280;7003;46.982;15.248;2023-04-01T09:21:37;95973.63;;;14.98;80.27
13867;BME280;7003;46.982;15.248;2023-04-01T09:24:41;95978.22;;;15.16;73.85
13867;BME280;7003;46.982;15.248;2023-04-01T09:27:25;95976.31;;;15.23;72.21
13867;BME280;7003;46.982;15.248;2023-04-01T09:30:27;95979.75;;;15.06;71.53
13867;BME280;7003;46.982;15.248;2023-04-01T09:36:15;95980.03;;;14.55;65.46
13867;BME280;7003;46.982;15.248;2023-04-01T09:38:56;95979.25;;;14.51;69.09
13867;BME280;7003;46.982;15.248;2023-04-01T09:41:31;95978.53;;;14.64;66.52
13867;BME280;7003;46.982;15.248;2023-04-01T09:44:02;95983.44;;;14.48;65.27
13867;BME280;7003;46.982;15.248;2023-04-01T09:46:41;95981.94;;;14.51;65.29
13867;BME280;7003;46.982;15.248;2023-04-01T09:49:25;95988.84;;;14.55;73.98
13867;BME280;7003;46.982;15.248;2023-04-01T09:52:07;95990.25;;;14.35;67.15
13867;BME280;7003;46.982;15.248;2023-04-01T09:54:55;95984.66;;;13.82;71.76
13867;BME280;7003;46.982;15.248;2023-04-01T10:00:55;95986.75;;;13.52;75.44
13867;BME280;7003;46.982;15.248;2023-04-01T10:10:00;95986.94;;;13.80;73.71
13867;BME280;7003;46.982;15.248;2023-04-01T10:12:59;95992.63;;;13.75;68.83
13867;BME280;7003;46.982;15.248;2023-04-01T10:16:03;95991.03;;;13.63;73.87
13867;BME280;7003;46.982;15.248;2023-04-01T10:18:59;95993.00;;;13.70;71.22
13867;BME280;7003;46.982;15.248;2023-04-01T10:21:55;95990.41;;;13.87;73.16
13867;BME280;7003;46.982;15.248;2023-04-01T10:30:54;95991.50;;;13.76;71.22
13867;BME280;7003;46.982;15.248;2023-04-01T10:33:57;95998.47;;;13.91;71.59
13867;BME280;7003;46.982;15.248;2023-04-01T10:36:47;96001.59;;;14.11;67.32
13867;BME280;7003;46.982;15.248;2023-04-01T10:43:02;95997.44;;;14.13;67.58
13867;BME280;7003;46.982;15.248;2023-04-01T10:46:14;95992.50;;;14.26;62.14
13867;BME280;7003;46.982;15.248;2023-04-01T10:49:41;95990.91;;;14.07;65.53
13867;BME280;7003;46.982;15.248;2023-04-01T10:55:37;95987.56;;;14.28;68.70
13867;BME280;7003;46.982;15.248;2023-04-01T11:01:45;95986.84;;;14.42;64.52
13867;BME280;7003;46.982;15.248;2023-04-01T11:04:39;95992.56;;;14.37;64.77
13867;BME280;7003;46.982;15.248;2023-04-01T11:07:44;95990.31;;;14.49;63.84
13867;BME280;7003;46.982;15.248;2023-04-01T11:22:56;95994.06;;;14.34;61.41
13867;BME280;7003;46.982;15.248;2023-04-01T11:25:46;95995.59;;;14.32;63.28
13867;BME280;7003;46.982;15.248;2023-04-01T11:28:27;95987.50;;;14.17;58.76
13867;BME280;7003;46.982;15.248;2023-04-01T11:31:23;95977.28;;;14.37;65.14
13867;BME280;7003;46.982;15.248;2023-04-01T11:34:05;95981.97;;;14.61;63.92
13867;BME280;7003;46.982;15.248;2023-04-01T11:36:51;95970.09;;;14.59;60.70
13867;BME280;7003;46.982;15.248;2023-04-01T11:39:32;95965.88;;;14.58;61.68
13867;BME280;7003;46.982;15.248;2023-04-01T11:42:12;95977.41;;;14.87;64.97
13867;BME280;7003;46.982;15.248;2023-04-01T11:44:51;95975.91;;;15.00;61.18
13867;BME280;7003;46.982;15.248;2023-04-01T11:47:48;95980.84;;;14.80;59.21
13867;BME280;7003;46.982;15.248;2023-04-01T11:50:29;95972.38;;;14.53;58.85
13867;BME280;7003;46.982;15.248;2023-04-01T11:55:59;95975.06;;;14.64;61.84
13867;BME280;7003;46.982;15.248;2023-04-01T12:01:50;95973.13;;;14.43;61.92
13867;BME280;7003;46.982;15.248;2023-04-01T12:04:58;95977.00;;;14.67;59.48
13867;BME280;7003;46.982;15.248;2023-04-01T12:07:55;95971.66;;;14.74;60.55
13867;BME280;7003;46.982;15.248;2023-04-01T12:10:34;95975.81;;;14.57;58.65
13867;BME280;7003;46.982;15.248;2023-04-01T12:13:16;95981.91;;;14.44;58.48
13867;BME280;7003;46.982;15.248;2023-04-01T12:16:00;95977.00;;;14.67;58.03
13867;BME280;7003;46.982;15.248;2023-04-01T12:18:38;95973.56;;;14.70;62.31
13867;BME280;7003;46.982;15.248;2023-04-01T12:21:17;95973.16;;;14.61;58.43
13867;BME280;7003;46.982;15.248;2023-04-01T12:30:26;95971.22;;;14.51;59.36
13867;BME280;7003;46.982;15.248;2023-04-01T12:33:11;95971.63;;;14.60;61.24
13867;BME280;7003;46.982;15.248;2023-04-01T12:35:53;95973.47;;;14.42;56.60
13867;BME280;7003;46.982;15.248;2023-04-01T12:38:31;95972.38;;;14.57;56.93
13867;BME280;7003;46.982;15.248;2023-04-01T12:41:16;95970.84;;;14.56;57.95
13867;BME280;7003;46.982;15.248;2023-04-01T12:44:12;95969.72;;;14.64;57.62
13867;BME280;7003;46.982;15.248;2023-04-01T12:47:05;95959.81;;;14.68;60.42
13867;BME280;7003;46.982;15.248;2023-04-01T12:50:07;95957.53;;;14.77;64.07
13867;BME280;7003;46.982;15.248;2023-04-01T12:52:54;95965.97;;;15.15;62.55
13867;BME280;7003;46.982;15.248;2023-04-01T12:55:38;95964.44;;;14.99;60.15
13867;BME280;7003;46.982;15.248;2023-04-01T12:58:44;95958.34;;;15.10;58.95
13867;BME280;7003;46.982;15.248;2023-04-01T13:01:27;95951.81;;;15.18;59.15
13867;BME280;7003;46.982;15.248;2023-04-01T13:04:29;95942.63;;;15.12;54.71
13867;BME280;7003;46.982;15.248;2023-04-01T13:07:23;95943.78;;;14.96;52.23
13867;BME280;7003;46.982;15.248;2023-04-01T13:10:02;95946.84;;;14.98;54.50
13867;BME280;7003;46.982;15.248;2023-04-01T13:12:51;95943.00;;;14.96;54.52
13867;BME280;7003;46.982;15.248;2023-04-01T13:15:28;95936.88;;;14.88;54.12
13867;BME280;7003;46.982;15.248;2023-04-01T13:18:04;95936.88;;;15.02;56.08
13867;BME280;7003;46.982;15.248;2023-04-01T13:20:44;95930.75;;;15.27;58.86
13867;BME280;7003;46.982;15.248;2023-04-01T13:23:24;95939.56;;;15.59;57.06
13867;BME280;7003;46.982;15.248;2023-04-01T13:26:08;95934.53;;;15.79;55.57
13867;BME280;7003;46.982;15.248;2023-04-01T13:28:47;95930.69;;;15.84;50.63
13867;BME280;7003;46.982;15.248;2023-04-01T13:31:27;95931.38;;;16.05;53.25
13867;BME280;7003;46.982;15.248;2023-04-01T13:34:07;95926.03;;;16.02;53.09
13867;BME280;7003;46.982;15.248;2023-04-01T13:36:53;95923.59;;;16.32;49.71
13867;BME280;7003;46.982;15.248;2023-04-01T13:39:42;95917.47;;;16.28;48.18
13867;BME280;7003;46.982;15.248;2023-04-01T13:42:21;95909.03;;;16.30;52.30
13867;BME280;7003;46.982;15.248;2023-04-01T13:44:56;95914.41;;;16.26;52.19
13867;BME280;7003;46.982;15.248;2023-04-01T13:47:57;95900.44;;;16.63;49.81
13867;BME280;7003;46.982;15.248;2023-04-01T13:50:37;95902.28;;;17.25;48.09
13867;BME280;7003;46.982;15.248;2023-04-01T13:53:32;95895.81;;;17.56;48.63
13867;BME280;7003;46.982;15.248;2023-04-01T13:56:13;95888.63;;;17.84;49.60
13867;BME280;7003;46.982;15.248;2023-04-01T13:59:02;95887.75;;;17.94;46.92
13867;BME280;7003;46.982;15.248;2023-04-01T14:01:39;95892.16;;;18.11;47.45
13867;BME280;7003;46.982;15.248;2023-04-01T14:04:34;95888.81;;;18.30;46.37
13867;BME280;7003;46.982;15.248;2023-04-01T14:07:22;95886.19;;;18.54;44.36
13867;BME280;7003;46.982;15.248;2023-04-01T14:10:07;95881.53;;;18.00;41.40
13867;BME280;7003;46.982;15.248;2023-04-01T14:12:45;95884.72;;;17.51;41.19
13867;BME280;7003;46.982;15.248;2023-04-01T14:15:29;95875.53;;;17.86;44.19
13867;BME280;7003;46.982;15.248;2023-04-01T14:18:16;95878.44;;;17.27;41.65
13867;BME280;7003;46.982;15.248;2023-04-01T14:21:07;95869.31;;;17.17;41.46
13867;BME280;7003;46.982;15.248;2023-04-01T14:23:49;95874.53;;;16.90;42.12
13867;BME280;7003;46.982;15.248;2023-04-01T14:26:35;95882.72;;;16.73;44.92
13867;BME280;7003;46.982;15.248;2023-04-01T14:29:20;95871.25;;;17.17;46.03
13867;BME280;7003;46.982;15.248;2023-04-01T14:32:06;95871.91;;;17.65;44.49
13867;BME280;7003;46.982;15.248;2023-04-01T14:34:47;95864.88;;;18.09;42.11
13867;BME280;7003;46.982;15.248;2023-04-01T14:37:43;95866.88;;;18.62;41.86
13867;BME280;7003;46.982;15.248;2023-04-01T14:40:28;95857.56;;;18.67;41.45
13867;BME280;7003;46.982;15.248;2023-04-01T14:43:28;95861.47;;;18.62;42.05
13867;BME280;7003;46.982;15.248;2023-04-01T14:46:21;95861.56;;;18.55;41.63
13867;BME280;7003;46.982;15.248;2023-04-01T14:48:53;95854.03;;;18.43;40.45
13867;BME280;7003;46.982;15.248;2023-04-01T14:51:30;95860.53;;;18.45;43.20
13867;BME280;7003;46.982;15.248;2023-04-01T14:54:08;95862.56;;;18.38;40.48
13867;BME280;7003;46.982;15.248;2023-04-01T14:56:42;95858.63;;;18.19;42.68
13867;BME280;7003;46.982;15.248;2023-04-01T14:59:27;95865.06;;;18.25;42.89
13867;BME280;7003;46.982;15.248;2023-04-01T15:02:01;95855.28;;;18.08;41.61
13867;BME280;7003;46.982;15.248;2023-04-01T15:04:45;95854.53;;;18.07;47.96
13867;BME280;7003;46.982;15.248;2023-04-01T15:10:13;95847.78;;;18.50;41.52
13867;BME280;7003;46.982;15.248;2023-04-01T15:12:56;95849.50;;;18.36;44.45